createdAt,value
2018-02-01T00:00:46.247Z,6.87
2018-02-01T00:03:13.723Z,7.70
2018-02-01T00:05:41.439Z,8.40
2018-02-01T00:08:08.903Z,8.70
2018-02-01T00:10:36.361Z,9.43
2018-02-01T00:13:03.952Z,9.85
2018-02-01T00:15:31.413Z,10.50
2018-02-01T00:17:58.903Z,11.05
2018-02-01T00:20:26.569Z,12.95
2018-02-01T00:22:54.036Z,12.55
2018-02-01T00:25:21.508Z,13.60
2018-02-01T00:27:49.079Z,14.55
2018-02-01T00:30:16.546Z,15.52
2018-02-01T00:32:44.011Z,15.27
2018-02-01T00:35:11.504Z,15.30
2018-02-01T00:37:38.968Z,15.80
2018-02-01T00:40:06.432Z,15.63
2018-02-01T00:42:33.900Z,17.00
2018-02-01T00:45:01.361Z,16.37
2018-02-01T00:47:28.820Z,16.90
2018-02-01T00:49:56.300Z,15.90
2018-02-01T00:52:23.767Z,16.65
2018-02-01T00:54:51.257Z,16.58
2018-02-01T00:57:18.815Z,17.12
2018-02-01T00:59:46.279Z,16.52
2018-02-01T01:02:17.077Z,17.60
2018-02-01T01:04:45.320Z,17.00
2018-02-01T01:07:13.003Z,16.90
2018-02-01T01:09:40.560Z,17.35
2018-02-01T01:12:08.020Z,16.90
2018-02-01T01:14:35.488Z,16.30
2018-02-01T01:17:02.976Z,15.18
2018-02-01T01:19:30.439Z,15.60
2018-02-01T01:21:57.896Z,15.05
2018-02-01T01:24:25.376Z,15.23
2018-02-01T01:26:52.843Z,14.98
2018-02-01T01:29:20.306Z,15.50
2018-02-01T01:31:47.772Z,14.80
2018-02-01T01:34:15.632Z,14.27
2018-02-01T01:36:43.145Z,14.77
2018-02-01T01:39:10.608Z,14.05
2018-02-01T01:41:38.088Z,13.57
2018-02-01T01:44:05.551Z,13.20
2018-02-01T01:46:33.021Z,14.00
2018-02-01T01:49:00.693Z,14.98
2018-02-01T01:51:28.180Z,14.40
2018-02-01T01:53:55.653Z,14.75
2018-02-01T01:56:23.132Z,14.25
2018-02-01T01:58:51.373Z,14.30
2018-02-01T02:01:18.828Z,14.18
2018-02-01T02:03:46.304Z,14.43
2018-02-01T02:06:13.896Z,13.27
2018-02-01T02:08:41.368Z,13.77
2018-02-01T02:11:08.836Z,13.10
2018-02-01T02:13:36.300Z,13.43
2018-02-01T02:16:03.781Z,14.20
2018-02-01T02:18:32.781Z,12.85
2018-02-01T02:21:00.244Z,14.30
2018-02-01T02:23:27.770Z,13.68
2018-02-01T02:25:55.992Z,14.60
2018-02-01T02:28:23.459Z,13.50
2018-02-01T02:30:50.927Z,12.95
2018-02-01T02:33:18.420Z,14.35
2018-02-01T02:35:45.988Z,14.70
2018-02-01T02:38:13.456Z,15.80
2018-02-01T02:40:40.930Z,15.20
2018-02-01T02:43:08.421Z,15.18
2018-02-01T02:45:36.648Z,12.90
2018-02-01T02:48:04.105Z,15.38
2018-02-01T02:50:31.638Z,15.17
2018-02-01T02:52:59.863Z,14.40
2018-02-01T02:55:27.344Z,13.77
2018-02-01T02:57:54.840Z,13.60
2018-02-01T03:00:22.459Z,14.50
2018-02-01T03:02:50.712Z,14.40
2018-02-01T03:05:18.196Z,14.52
2018-02-01T03:07:45.656Z,14.98
2018-02-01T03:10:13.196Z,15.55
2018-02-01T03:12:40.684Z,15.80
2018-02-01T03:15:08.160Z,16.37
2018-02-01T03:17:35.632Z,16.45
2018-02-01T03:20:03.119Z,16.75
2018-02-01T03:22:30.577Z,16.87
2018-02-01T03:24:58.035Z,17.77
2018-02-01T03:27:25.616Z,18.30
2018-02-01T03:29:53.101Z,19.00
2018-02-01T03:32:21.372Z,18.25
2018-02-01T03:34:48.837Z,17.90
2018-02-01T03:37:16.425Z,18.20
2018-02-01T03:39:43.903Z,17.80
2018-02-01T03:42:11.460Z,18.35
2018-02-01T03:44:38.926Z,17.75
2018-02-01T03:47:06.380Z,18.60
2018-02-01T03:49:33.864Z,18.50
2018-02-01T03:52:01.432Z,18.47
2018-02-01T03:54:28.912Z,18.35
2018-02-01T03:56:56.376Z,17.60
2018-02-01T03:59:25.369Z,17.70
2018-02-01T04:01:52.839Z,16.87
2018-02-01T04:04:20.421Z,18.50
2018-02-01T04:06:47.888Z,16.70
2018-02-01T04:09:15.356Z,17.80
2018-02-01T04:11:42.928Z,17.98
2018-02-01T04:14:10.396Z,16.45
2018-02-01T04:16:37.887Z,17.20
2018-02-01T04:19:05.396Z,16.50
2018-02-01T04:21:32.935Z,15.73
2018-02-01T04:24:00.380Z,16.40
2018-02-01T04:26:28.180Z,15.60
2018-02-01T04:28:55.653Z,16.10
2018-02-01T04:31:23.891Z,15.52
2018-02-01T04:33:51.352Z,14.18
2018-02-01T04:36:18.836Z,14.10
2018-02-01T04:38:46.332Z,14.13
2018-02-01T04:41:13.895Z,13.07
2018-02-01T04:43:41.480Z,12.85
2018-02-01T04:46:09.036Z,13.07
2018-02-01T04:48:36.508Z,12.55
2018-02-01T04:51:03.967Z,12.77
2018-02-01T04:53:31.432Z,11.50
2018-02-01T04:55:58.916Z,11.63
2018-02-01T04:58:26.500Z,11.93
2018-02-01T05:00:54.060Z,10.90
2018-02-01T05:03:21.516Z,10.52
2018-02-01T05:05:49.000Z,10.90
2018-02-01T05:08:16.568Z,10.57
2018-02-01T05:10:44.032Z,9.60
2018-02-01T05:13:11.521Z,9.80
2018-02-01T05:15:39.004Z,10.05
2018-02-01T05:18:07.240Z,9.70
2018-02-01T05:20:34.700Z,8.98
2018-02-01T05:23:02.180Z,9.38
2018-02-01T05:25:29.680Z,9.90
2018-02-01T05:27:57.243Z,8.80
2018-02-01T05:30:24.825Z,7.87
2018-02-01T05:32:52.280Z,8.30
2018-02-01T05:35:19.735Z,7.87
2018-02-01T05:37:47.211Z,8.60
2018-02-01T05:40:14.696Z,7.37
2018-02-01T05:42:42.151Z,7.70
2018-02-01T05:45:09.647Z,7.12
2018-02-01T05:47:37.124Z,7.70
2018-02-01T05:50:04.676Z,6.65
2018-02-01T05:52:32.247Z,7.07
2018-02-01T05:54:59.715Z,7.20
2018-02-01T05:57:27.177Z,7.18
2018-02-01T05:59:54.663Z,6.15
2018-02-01T06:02:22.120Z,6.60
2018-02-01T06:04:49.800Z,6.87
2018-02-01T06:07:17.256Z,6.30
2018-02-01T06:09:44.727Z,6.28
2018-02-01T06:12:12.216Z,6.40
2018-02-01T06:14:39.680Z,5.90
2018-02-01T06:17:07.140Z,7.00
2018-02-01T06:19:34.604Z,7.43
2018-02-01T06:22:02.089Z,7.53
2018-02-01T06:24:29.664Z,6.93
2018-02-01T06:26:57.236Z,6.65
2018-02-01T06:29:24.700Z,7.45
2018-02-01T06:31:52.156Z,6.95
2018-02-01T06:34:19.631Z,6.87
2018-02-01T06:36:47.116Z,6.50
2018-02-01T06:39:14.580Z,7.43
2018-02-01T06:41:42.060Z,6.57
2018-02-01T06:44:09.528Z,6.70
2018-02-01T06:46:36.987Z,7.57
2018-02-01T06:49:04.476Z,6.87
2018-02-01T06:51:31.945Z,6.95
2018-02-01T06:53:59.403Z,6.43
2018-02-01T06:56:26.878Z,7.40
2018-02-01T06:58:54.432Z,7.05
2018-02-01T07:01:23.747Z,6.57
2018-02-01T07:03:51.288Z,7.05
2018-02-01T07:06:18.752Z,7.80
2018-02-01T07:08:46.231Z,8.07
2018-02-01T07:11:13.688Z,7.20
2018-02-01T07:13:41.148Z,7.05
2018-02-01T07:16:08.676Z,8.55
2018-02-01T07:18:36.132Z,8.07
2018-02-01T07:21:03.704Z,7.85
2018-02-01T07:23:31.168Z,7.80
2018-02-01T07:25:58.628Z,8.50
2018-02-01T07:28:26.100Z,7.60
2018-02-01T07:30:53.688Z,7.05
2018-02-01T07:33:21.256Z,8.43
2018-02-01T07:35:48.712Z,7.32
2018-02-01T07:38:16.200Z,7.82
2018-02-01T07:40:43.775Z,7.65
2018-02-01T07:43:11.244Z,8.57
2018-02-01T07:45:40.220Z,7.80
2018-02-01T07:48:07.679Z,7.40
2018-02-01T07:50:35.188Z,7.40
2018-02-01T07:53:04.160Z,7.62
2018-02-01T07:55:31.626Z,7.40
2018-02-01T07:57:59.137Z,7.40
2018-02-01T08:00:26.595Z,7.68
2018-02-01T08:02:54.064Z,7.40
2018-02-01T08:05:21.537Z,7.35
2018-02-01T08:07:49.001Z,6.60
2018-02-01T08:10:16.684Z,7.00
2018-02-01T08:12:44.154Z,6.80
2018-02-01T08:15:11.613Z,7.53
2018-02-01T08:17:40.005Z,6.10
2018-02-01T08:20:07.472Z,7.00
2018-02-01T08:22:34.933Z,6.80
2018-02-01T08:25:02.396Z,7.15
2018-02-01T08:27:29.856Z,5.90
2018-02-01T08:29:57.328Z,6.57
2018-02-01T08:32:24.796Z,6.60
2018-02-01T08:34:52.273Z,6.37
2018-02-01T08:37:19.728Z,6.12
2018-02-01T08:39:47.188Z,6.00
2018-02-01T08:42:14.648Z,6.20
2018-02-01T08:44:42.113Z,5.40
2018-02-01T08:47:09.855Z,5.85
2018-02-01T08:49:37.324Z,4.97
2018-02-01T08:52:04.962Z,5.57
2018-02-01T08:54:32.421Z,5.60
2018-02-01T08:56:59.875Z,5.05
2018-02-01T08:59:27.351Z,5.10
2018-02-01T09:01:54.805Z,5.70
2018-02-01T09:04:23.028Z,4.80
2018-02-01T09:06:50.491Z,5.03
2018-02-01T09:09:17.960Z,4.60
2018-02-01T09:11:45.452Z,5.05
2018-02-01T09:14:12.923Z,4.90
2018-02-01T09:16:40.396Z,5.15
2018-02-01T09:19:07.872Z,5.10
2018-02-01T09:21:35.444Z,5.00
2018-02-01T09:24:02.911Z,4.90
2018-02-01T09:26:30.372Z,4.80
2018-02-01T09:28:57.840Z,4.93
2018-02-01T09:31:25.298Z,5.28
2018-02-01T09:33:52.752Z,5.20
2018-02-01T09:36:20.212Z,3.93
2018-02-01T09:38:47.673Z,5.07
2018-02-01T09:41:15.168Z,4.47
2018-02-01T09:43:42.640Z,5.00
2018-02-01T09:46:10.112Z,4.85
2018-02-01T09:48:37.601Z,4.62
2018-02-01T09:51:05.064Z,4.50
2018-02-01T09:53:32.520Z,4.30
2018-02-01T09:56:00.030Z,4.70
2018-02-01T09:58:27.488Z,4.45
2018-02-01T10:00:54.952Z,4.07
2018-02-01T10:03:22.420Z,5.12
2018-02-01T10:05:49.876Z,4.07
2018-02-01T10:08:17.333Z,4.43
2018-02-01T10:10:44.812Z,4.27
2018-02-01T10:13:12.272Z,4.55
2018-02-01T10:15:39.732Z,4.85
2018-02-01T10:18:07.244Z,5.37
2018-02-01T10:20:34.808Z,5.12
2018-02-01T10:23:02.264Z,4.68
2018-02-01T10:25:29.735Z,4.78
2018-02-01T10:27:57.200Z,4.72
2018-02-01T10:30:24.664Z,4.90
2018-02-01T10:32:52.120Z,4.85
2018-02-01T10:35:19.598Z,4.70
2018-02-01T10:37:47.053Z,4.68
2018-02-01T10:40:14.529Z,5.00
2018-02-01T10:42:41.993Z,3.95
2018-02-01T10:45:09.448Z,3.90
2018-02-01T10:47:36.964Z,4.72
2018-02-01T10:50:04.651Z,4.62
2018-02-01T10:52:32.107Z,4.10
2018-02-01T10:54:59.685Z,4.50
2018-02-01T10:57:27.144Z,4.65
2018-02-01T10:59:54.725Z,4.75
2018-02-01T11:02:22.196Z,4.62
2018-02-01T11:04:49.669Z,4.97
2018-02-01T11:07:17.172Z,5.32
2018-02-01T11:09:45.404Z,5.60
2018-02-01T11:12:12.903Z,5.87
2018-02-01T11:14:40.408Z,5.40
2018-02-01T11:17:08.631Z,5.43
2018-02-01T11:19:36.124Z,5.82
2018-02-01T11:22:03.609Z,5.50
2018-02-01T11:24:31.884Z,5.75
2018-02-01T11:26:59.352Z,6.40
2018-02-01T11:29:26.823Z,6.53
2018-02-01T11:31:54.280Z,6.80
2018-02-01T11:34:21.752Z,6.30
2018-02-01T11:36:49.235Z,6.15
2018-02-01T11:39:16.700Z,6.60
2018-02-01T11:41:44.156Z,5.75
2018-02-01T11:44:11.621Z,7.22
2018-02-01T11:46:39.096Z,6.75
2018-02-01T11:49:06.569Z,7.05
2018-02-01T11:51:34.033Z,7.50
2018-02-01T11:54:01.501Z,7.80
2018-02-01T11:56:28.976Z,7.87
2018-02-01T11:58:56.432Z,7.33
2018-02-01T12:01:23.934Z,7.37
2018-02-01T12:03:51.396Z,7.60
2018-02-01T12:06:18.866Z,7.90
2018-02-01T12:08:46.344Z,8.75
2018-02-01T12:11:13.820Z,7.93
2018-02-01T12:13:42.212Z,8.77
2018-02-01T12:16:09.693Z,8.40
2018-02-01T12:18:37.926Z,6.53
2018-02-01T12:21:05.414Z,7.35
2018-02-01T12:23:32.872Z,7.37
2018-02-01T12:26:00.329Z,8.00
2018-02-01T12:28:27.800Z,6.87
2018-02-01T12:30:55.256Z,6.87
2018-02-01T12:33:22.737Z,6.68
2018-02-01T12:35:50.196Z,6.50
2018-02-01T12:38:17.656Z,7.00
2018-02-01T12:40:45.239Z,6.62
2018-02-01T12:43:12.702Z,6.57
2018-02-01T12:45:40.148Z,6.20
2018-02-01T12:48:08.376Z,6.37
2018-02-01T12:50:35.849Z,6.25
2018-02-01T12:53:03.300Z,6.20
2018-02-01T12:55:30.764Z,6.32
2018-02-01T12:57:58.232Z,6.07
2018-02-01T13:00:25.696Z,6.00
2018-02-01T13:02:53.152Z,6.33
2018-02-01T13:05:20.636Z,5.70
2018-02-01T13:07:48.096Z,6.32
2018-02-01T13:10:15.553Z,5.60
2018-02-01T13:12:43.100Z,5.68
2018-02-01T13:15:10.644Z,5.50
2018-02-01T13:17:38.132Z,6.05
2018-02-01T13:20:05.800Z,5.62
2018-02-01T13:22:33.274Z,6.55
2018-02-01T13:25:00.758Z,5.37
2018-02-01T13:27:28.244Z,6.37
2018-02-01T13:29:56.600Z,6.50
2018-02-01T13:32:24.060Z,5.80
2018-02-01T13:34:51.525Z,6.60
2018-02-01T13:37:18.992Z,6.68
2018-02-01T13:39:46.452Z,6.20
2018-02-01T13:42:13.948Z,6.70
2018-02-01T13:44:41.524Z,6.80
2018-02-01T13:47:09.103Z,6.75
2018-02-01T13:49:36.660Z,7.55
2018-02-01T13:52:04.122Z,6.78
2018-02-01T13:54:32.432Z,8.02
2018-02-01T13:56:59.896Z,7.75
2018-02-01T13:59:27.364Z,6.53
2018-02-01T14:01:54.832Z,6.90
2018-02-01T14:04:22.295Z,6.93
2018-02-01T14:06:49.777Z,5.85
2018-02-01T14:09:17.236Z,6.25
2018-02-01T14:11:44.704Z,6.30
2018-02-01T14:14:12.229Z,5.62
2018-02-01T14:16:39.680Z,5.23
2018-02-01T14:19:07.908Z,4.87
2018-02-01T14:21:35.377Z,5.20
2018-02-01T14:24:02.856Z,4.10
2018-02-01T14:26:30.311Z,4.30
2018-02-01T14:28:57.772Z,4.28
2018-02-01T14:31:25.253Z,4.90
2018-02-01T14:33:52.705Z,5.03
2018-02-01T14:36:20.171Z,5.20
2018-02-01T14:38:47.640Z,4.80
2018-02-01T14:41:15.165Z,5.60
2018-02-01T14:43:42.648Z,5.40
2018-02-01T14:46:10.201Z,6.70
2018-02-01T14:48:37.677Z,6.00
2018-02-01T14:51:05.167Z,6.25
2018-02-01T14:53:33.393Z,6.22
2018-02-01T14:56:00.878Z,5.87
2018-02-01T14:58:28.394Z,6.20
2018-02-01T15:00:56.624Z,6.20
2018-02-01T15:03:24.104Z,6.55
2018-02-01T15:05:51.563Z,7.30
2018-02-01T15:08:19.025Z,5.93
2018-02-01T15:10:46.486Z,6.15
2018-02-01T15:13:13.968Z,5.95
2018-02-01T15:15:41.424Z,6.20
2018-02-01T15:18:08.880Z,6.20
2018-02-01T15:20:36.348Z,6.45
2018-02-01T15:23:03.877Z,7.30
2018-02-01T15:25:31.340Z,7.50
2018-02-01T15:27:58.869Z,7.18
2018-02-01T15:30:26.338Z,7.00
2018-02-01T15:32:53.828Z,7.28
2018-02-01T15:35:21.304Z,7.00
2018-02-01T15:37:48.788Z,6.35
2018-02-01T15:40:16.244Z,6.18
2018-02-01T15:42:43.700Z,6.20
2018-02-01T15:45:11.180Z,6.22
2018-02-01T15:47:38.651Z,5.78
2018-02-01T15:50:06.116Z,5.80
2018-02-01T15:52:33.588Z,4.80
2018-02-01T15:55:01.048Z,5.80
2018-02-01T15:57:28.594Z,5.70
2018-02-01T15:59:56.428Z,6.00
2018-02-01T16:02:23.887Z,6.00
2018-02-01T16:04:51.351Z,7.40
2018-02-01T16:07:18.829Z,7.20
2018-02-01T16:09:46.284Z,7.65
2018-02-01T16:12:13.744Z,7.68
2018-02-01T16:14:41.208Z,8.25
2018-02-01T16:17:08.664Z,7.70
2018-02-01T16:19:36.128Z,8.02
2018-02-01T16:22:03.698Z,8.82
2018-02-01T16:24:31.916Z,8.65
2018-02-01T16:26:59.425Z,9.98
2018-02-01T16:29:27.048Z,9.55
2018-02-01T16:31:54.557Z,10.05
2018-02-01T16:34:22.018Z,9.50
2018-02-01T16:36:49.513Z,10.30
2018-02-01T16:39:16.974Z,10.20
2018-02-01T16:41:44.440Z,10.43
2018-02-01T16:44:11.904Z,11.20
2018-02-01T16:46:39.376Z,12.50
2018-02-01T16:49:06.914Z,12.37
2018-02-01T16:51:34.355Z,11.73
2018-02-01T16:54:01.821Z,12.50
2018-02-01T16:56:30.080Z,12.93
2018-02-01T16:58:57.553Z,14.93
2018-02-01T17:01:25.024Z,14.70
2018-02-01T17:03:52.492Z,13.30
2018-02-01T17:06:19.965Z,13.85
2018-02-01T17:08:48.197Z,14.60
2018-02-01T17:11:15.816Z,13.10
2018-02-01T17:13:43.372Z,14.00
2018-02-01T17:16:10.833Z,13.50
2018-02-01T17:18:38.300Z,13.43
2018-02-01T17:21:05.773Z,13.82
2018-02-01T17:23:33.323Z,13.90
2018-02-01T17:26:00.794Z,14.30
2018-02-01T17:28:28.262Z,15.02
2018-02-01T17:30:55.745Z,14.23
2018-02-01T17:33:23.212Z,14.00
2018-02-01T17:35:50.686Z,14.30
2018-02-01T17:38:18.220Z,15.48
2018-02-01T17:40:45.689Z,15.30
2018-02-01T17:43:13.160Z,14.20
2018-02-01T17:45:40.632Z,16.03
2018-02-01T17:48:08.092Z,15.40
2018-02-01T17:50:35.603Z,15.27
2018-02-01T17:53:03.073Z,16.70
2018-02-01T17:55:31.326Z,17.00
2018-02-01T17:57:59.564Z,16.65
2018-02-01T18:00:27.196Z,16.62
2018-02-01T18:02:54.659Z,16.48
2018-02-01T18:05:22.120Z,16.33
2018-02-01T18:07:49.588Z,17.33
2018-02-01T18:10:17.120Z,14.80
2018-02-01T18:12:44.629Z,14.75
2018-02-01T18:15:12.120Z,15.43
2018-02-01T18:17:39.587Z,15.00
2018-02-01T18:20:07.068Z,13.65
2018-02-01T18:22:34.571Z,12.50
2018-02-01T18:25:02.095Z,11.88
2018-02-01T18:27:29.584Z,11.60
2018-02-01T18:29:57.210Z,10.80
2018-02-01T18:32:24.669Z,9.90
2018-02-01T18:34:52.128Z,10.00
2018-02-01T18:37:19.604Z,9.50
2018-02-01T18:39:47.080Z,9.48
2018-02-01T18:42:14.564Z,9.43
2018-02-01T18:44:42.792Z,9.30
2018-02-01T18:47:10.302Z,9.90
2018-02-01T18:49:37.768Z,7.57
2018-02-01T18:52:05.236Z,8.43
2018-02-01T18:54:32.708Z,7.90
2018-02-01T18:57:00.168Z,7.57
2018-02-01T18:59:27.667Z,9.18
2018-02-01T19:01:55.896Z,9.57
2018-02-01T19:04:23.384Z,10.45
2018-02-01T19:06:50.877Z,10.50
2018-02-01T19:09:18.365Z,11.35
2018-02-01T19:11:45.827Z,11.98
2018-02-01T19:14:13.323Z,12.10
2018-02-01T19:16:40.780Z,11.55
2018-02-01T19:19:09.017Z,11.85
2018-02-01T19:21:36.486Z,13.18
2018-02-01T19:24:03.952Z,14.15
2018-02-01T19:26:31.481Z,12.80
2018-02-01T19:28:59.728Z,13.95
2018-02-01T19:31:27.193Z,14.68
2018-02-01T19:33:54.656Z,14.50
2018-02-01T19:36:22.131Z,14.00
2018-02-01T19:38:49.593Z,15.33
2018-02-01T19:41:17.084Z,16.10
2018-02-01T19:43:44.580Z,16.37
2018-02-01T19:46:12.815Z,18.00
2018-02-01T19:48:40.296Z,17.67
2018-02-01T19:51:07.820Z,18.75
2018-02-01T19:53:36.032Z,18.23
2018-02-01T19:56:03.495Z,19.60
2018-02-01T19:58:31.100Z,19.92
2018-02-01T20:00:58.563Z,18.90
2018-02-01T20:03:26.059Z,19.97
2018-02-01T20:05:53.663Z,20.12
2018-02-01T20:08:21.136Z,19.15
2018-02-01T20:10:48.609Z,18.45
2018-02-01T20:13:16.125Z,19.70
2018-02-01T20:15:43.591Z,19.42
2018-02-01T20:18:11.148Z,17.90
2018-02-01T20:20:38.621Z,18.62
2018-02-01T20:23:06.093Z,19.00
2018-02-01T20:25:34.403Z,19.52
2018-02-01T20:28:01.965Z,18.35
2018-02-01T20:30:29.612Z,18.87
2018-02-01T20:32:57.080Z,18.83
2018-02-01T20:35:24.571Z,17.70
2018-02-01T20:37:52.052Z,18.80
2018-02-01T20:40:19.612Z,19.12
2018-02-01T20:42:47.184Z,18.42
2018-02-01T20:45:14.664Z,17.95
2018-02-01T20:47:42.151Z,18.47
2018-02-01T20:50:10.394Z,19.90
2018-02-01T20:52:37.860Z,18.20
2018-02-01T20:55:05.393Z,18.92
2018-02-01T20:57:33.644Z,19.05
2018-02-01T21:00:01.136Z,19.60
2018-02-01T21:02:29.472Z,19.00
2018-02-01T21:04:56.937Z,18.20
2018-02-01T21:07:24.404Z,18.27
2018-02-01T21:09:51.868Z,18.00
2018-02-01T21:12:19.385Z,15.52
2018-02-01T21:14:46.848Z,17.90
2018-02-01T21:17:14.348Z,16.05
2018-02-01T21:19:42.614Z,17.02
2018-02-01T21:22:10.088Z,16.55
2018-02-01T21:24:38.344Z,15.95
2018-02-01T21:27:05.820Z,16.50
2018-02-01T21:29:33.292Z,15.30
2018-02-01T21:32:00.762Z,17.62
2018-02-01T21:34:28.239Z,16.12
2018-02-01T21:36:55.817Z,15.55
2018-02-01T21:39:23.321Z,14.47
2018-02-01T21:41:51.675Z,14.25
2018-02-01T21:44:19.183Z,15.38
2018-02-01T21:46:46.678Z,15.20
2018-02-01T21:49:14.172Z,15.95
2018-02-01T21:51:41.656Z,14.48
2018-02-01T21:54:09.228Z,14.82
2018-02-01T21:56:36.836Z,13.70
2018-02-01T21:59:05.084Z,13.60
2018-02-01T22:01:32.561Z,14.02
2018-02-01T22:04:00.037Z,14.07
2018-02-01T22:06:27.496Z,14.05
2018-02-01T22:08:54.961Z,15.10
2018-02-01T22:11:22.541Z,13.40
2018-02-01T22:13:50.105Z,13.97
2018-02-01T22:16:17.831Z,13.73
2018-02-01T22:18:45.352Z,13.07
2018-02-01T22:21:12.818Z,13.38
2018-02-01T22:23:40.288Z,13.13
2018-02-01T22:26:07.877Z,11.93
2018-02-01T22:28:35.444Z,12.70
2018-02-01T22:31:02.904Z,13.10
2018-02-01T22:33:30.384Z,11.35
2018-02-01T22:35:57.867Z,12.07
2018-02-01T22:38:26.110Z,13.10
2018-02-01T22:40:53.568Z,12.52
2018-02-01T22:43:21.036Z,12.10
2018-02-01T22:45:48.508Z,12.00
2018-02-01T22:48:16.001Z,11.20
2018-02-01T22:50:43.533Z,10.63
2018-02-01T22:53:11.054Z,11.50
2018-02-01T22:55:38.516Z,11.23
2018-02-01T22:58:05.981Z,11.90
2018-02-01T23:00:33.562Z,11.02
2018-02-01T23:03:01.024Z,11.80
2018-02-01T23:05:28.507Z,12.07
2018-02-01T23:07:55.976Z,13.32
2018-02-01T23:10:23.449Z,11.00
2018-02-01T23:12:51.121Z,11.88
2018-02-01T23:15:18.591Z,12.60
2018-02-01T23:17:46.061Z,12.33
2018-02-01T23:20:13.540Z,11.10
2018-02-01T23:22:41.808Z,10.55
2018-02-01T23:25:09.275Z,11.05
2018-02-01T23:27:36.760Z,10.70
2018-02-01T23:30:04.244Z,10.07
2018-02-01T23:32:31.888Z,10.98
2018-02-01T23:34:59.353Z,11.18
2018-02-01T23:37:26.816Z,12.00
2018-02-01T23:39:54.300Z,11.73
2018-02-01T23:42:21.816Z,11.12
2018-02-01T23:44:49.344Z,12.50
2018-02-01T23:47:16.804Z,11.75
2018-02-01T23:49:44.276Z,11.55
2018-02-01T23:52:11.744Z,12.48
2018-02-01T23:54:39.232Z,12.05
2018-02-01T23:57:06.692Z,13.60
2018-02-01T23:59:34.197Z,12.60
